createdAt,value
2022-12-02T08:48:59.169Z,0
2022-12-02T08:50:05.215Z,4143
2022-12-02T08:51:11.454Z,4338
2022-12-02T08:52:17.482Z,4461
2022-12-02T08:53:23.686Z,4473
2022-12-02T08:54:29.719Z,4594
2022-12-02T08:55:35.838Z,4439
2022-12-02T08:56:42.038Z,4425
2022-12-02T08:57:48.049Z,4259
2022-12-02T08:58:54.148Z,4035
2022-12-02T09:00:00.353Z,3770
2022-12-02T09:01:06.370Z,4032
2022-12-02T09:02:12.481Z,4211
2022-12-02T09:03:18.608Z,4361
2022-12-02T09:04:24.701Z,4476
2022-12-02T09:05:30.808Z,4681
2022-12-02T09:06:36.965Z,5049
2022-12-02T09:07:43.014Z,5245
2022-12-02T09:08:49.163Z,5436
2022-12-02T09:09:55.271Z,5956
2022-12-02T09:11:01.330Z,6153
2022-12-02T09:12:07.438Z,6693
2022-12-02T09:13:13.579Z,7418
2022-12-02T09:14:19.654Z,8360
2022-12-02T09:15:25.749Z,8723
2022-12-02T09:16:31.846Z,9195
2022-12-02T09:17:37.966Z,10389
2022-12-02T09:18:44.083Z,11134
2022-12-02T09:19:50.175Z,11298
2022-12-02T09:20:56.250Z,11517
2022-12-02T09:22:02.382Z,11662
2022-12-02T09:23:08.435Z,12560
2022-12-02T09:24:14.533Z,12255
2022-12-02T09:25:20.649Z,14021
2022-12-02T09:26:26.719Z,14691
2022-12-02T09:27:32.902Z,13975
2022-12-02T09:28:38.921Z,13903
2022-12-02T09:29:45.034Z,13634
2022-12-02T09:30:51.153Z,13092
2022-12-02T09:31:57.220Z,12825
2022-12-02T09:33:03.351Z,12174
2022-12-02T09:34:09.485Z,12179
2022-12-02T09:35:15.440Z,12318
2022-12-02T09:36:21.636Z,12793
2022-12-02T09:37:27.634Z,12444
2022-12-02T09:38:33.732Z,12815
2022-12-02T09:39:39.810Z,12233
2022-12-02T09:40:45.947Z,13300
2022-12-02T09:41:51.970Z,13033
2022-12-02T09:42:58.034Z,13132
2022-12-02T09:44:04.203Z,12969
2022-12-02T09:45:10.286Z,12397
2022-12-02T09:46:16.300Z,12320
2022-12-02T09:47:22.352Z,13077
2022-12-02T09:48:28.503Z,13381
2022-12-02T09:49:34.501Z,12525
2022-12-02T09:50:40.579Z,13676
2022-12-02T09:51:46.787Z,12604
2022-12-02T09:52:52.729Z,11821
2022-12-02T09:53:58.811Z,11726
2022-12-02T09:55:04.876Z,11640
2022-12-02T09:56:10.964Z,11893
2022-12-02T09:57:17.100Z,11757
2022-12-02T09:58:23.102Z,11401
2022-12-02T09:59:29.246Z,11158
2022-12-02T10:00:35.408Z,11230
2022-12-02T10:01:41.338Z,10524
2022-12-02T10:02:47.508Z,10528
2022-12-02T10:03:53.471Z,10967
2022-12-02T10:04:59.553Z,10087
2022-12-02T10:06:05.619Z,9653
2022-12-02T10:07:11.701Z,9891
2022-12-02T10:08:17.809Z,10663
2022-12-02T10:09:23.856Z,10748
2022-12-02T10:10:29.920Z,9419
2022-12-02T10:11:36.009Z,8323
2022-12-02T10:12:42.091Z,8134
2022-12-02T10:13:48.256Z,7802
2022-12-02T10:14:54.253Z,7089
2022-12-02T10:16:00.363Z,7217
2022-12-02T10:17:06.413Z,7497
2022-12-02T10:18:12.483Z,6989
2022-12-02T10:19:18.628Z,6276
2022-12-02T10:20:24.658Z,5870
2022-12-02T10:21:30.725Z,5479
2022-12-02T10:22:36.818Z,5109
2022-12-02T10:23:42.973Z,4763
2022-12-02T10:24:48.979Z,4514
2022-12-02T10:25:55.101Z,4466
2022-12-02T10:27:01.128Z,5216
2022-12-02T10:28:07.226Z,5728
2022-12-02T10:29:13.295Z,6017
2022-12-02T10:30:19.395Z,6733
2022-12-02T10:31:25.484Z,6189
2022-12-02T10:32:31.579Z,6619
2022-12-02T10:33:37.740Z,6393
2022-12-02T10:34:43.751Z,6142
2022-12-02T10:35:49.826Z,6126
2022-12-02T10:36:55.898Z,6264
2022-12-02T10:38:01.989Z,6878
2022-12-02T10:39:08.071Z,7019
2022-12-02T10:40:14.169Z,7275
2022-12-02T10:41:20.294Z,6620
2022-12-02T10:42:26.340Z,6390
2022-12-02T10:43:32.449Z,6375
2022-12-02T10:44:38.551Z,7093
2022-12-02T10:45:44.613Z,7097
2022-12-02T10:46:50.718Z,6659
2022-12-02T10:47:56.793Z,6313
2022-12-02T10:49:02.883Z,6173
2022-12-02T10:50:09.032Z,6342
2022-12-02T10:51:15.064Z,6488
2022-12-02T10:52:21.159Z,6496
2022-12-02T10:53:27.257Z,6306
2022-12-02T10:54:33.392Z,7025
2022-12-02T10:55:39.538Z,8142
2022-12-02T10:56:45.545Z,8206
2022-12-02T10:57:51.623Z,7913
2022-12-02T10:58:57.725Z,8444
2022-12-02T11:00:03.864Z,9089
2022-12-02T11:01:09.913Z,9250
2022-12-02T11:02:16.022Z,9559
2022-12-02T11:03:22.081Z,9369
2022-12-02T11:04:28.181Z,9276
2022-12-02T11:05:34.261Z,9366
2022-12-02T11:06:40.349Z,9181
2022-12-02T11:07:46.424Z,8764
2022-12-02T11:08:52.521Z,8840
2022-12-02T11:09:58.644Z,8547
2022-12-02T11:11:04.697Z,8638
2022-12-02T11:12:10.784Z,8522
2022-12-02T11:13:16.873Z,7984
2022-12-02T11:14:22.979Z,7933
2022-12-02T11:15:29.057Z,8269
2022-12-02T11:16:35.162Z,8158
2022-12-02T11:17:41.306Z,8060
2022-12-02T11:18:47.334Z,7674
2022-12-02T11:19:53.418Z,7468
2022-12-02T11:20:59.532Z,7718
2022-12-02T11:22:05.621Z,7477
2022-12-02T11:23:11.702Z,7820
2022-12-02T11:24:17.797Z,7525
2022-12-02T11:25:23.920Z,7105
2022-12-02T11:26:30.029Z,7119
2022-12-02T11:27:36.071Z,8182
2022-12-02T11:28:42.167Z,8596
2022-12-02T11:29:48.273Z,7942
2022-12-02T11:30:54.345Z,8215
2022-12-02T11:32:00.434Z,7377
2022-12-02T11:33:06.525Z,7379
2022-12-02T11:34:12.619Z,8321
2022-12-02T11:35:18.725Z,8559
2022-12-02T11:36:24.897Z,8214
2022-12-02T11:37:30.924Z,8235
2022-12-02T11:38:36.981Z,8078
2022-12-02T11:39:43.098Z,7873
2022-12-02T11:40:49.175Z,7941
2022-12-02T11:41:55.371Z,8295
2022-12-02T11:43:01.520Z,8275
2022-12-02T11:44:07.546Z,8153
2022-12-02T11:45:13.673Z,8133
2022-12-02T11:46:19.683Z,8705
2022-12-02T11:47:25.716Z,8359
2022-12-02T11:48:31.901Z,7996
2022-12-02T11:49:37.885Z,7805
2022-12-02T11:50:44.037Z,8210
2022-12-02T11:51:50.071Z,8340
2022-12-02T11:52:56.156Z,8101
2022-12-02T11:54:02.250Z,8537
2022-12-02T11:55:08.481Z,8300
2022-12-02T11:56:14.436Z,7618
2022-12-02T11:57:20.569Z,7668
2022-12-02T11:58:26.739Z,6964
2022-12-02T11:59:32.693Z,7196
2022-12-02T12:00:38.881Z,6725
2022-12-02T12:01:44.962Z,6673
2022-12-02T12:02:50.964Z,6588
2022-12-02T12:03:57.105Z,6556
2022-12-02T12:05:03.193Z,6692
2022-12-02T12:06:09.346Z,6481
2022-12-02T12:07:15.324Z,5722
2022-12-02T12:08:21.438Z,6202
2022-12-02T12:09:27.580Z,5833
2022-12-02T12:10:33.638Z,5665
2022-12-02T12:11:39.888Z,5494
2022-12-02T12:12:45.769Z,5481
2022-12-02T12:13:51.868Z,5733
2022-12-02T12:14:57.961Z,6142
2022-12-02T12:16:04.075Z,5484
2022-12-02T12:17:10.276Z,5039
2022-12-02T12:18:16.283Z,5481
2022-12-02T12:19:22.495Z,5803
2022-12-02T12:20:28.470Z,5443
2022-12-02T12:21:34.520Z,5195
2022-12-02T12:22:40.641Z,5608
2022-12-02T12:23:46.686Z,5487
2022-12-02T12:24:52.898Z,5332
2022-12-02T12:25:58.914Z,4734
2022-12-02T12:27:05.013Z,5228
2022-12-02T12:28:11.089Z,5252
2022-12-02T12:29:17.086Z,5129
2022-12-02T12:30:23.342Z,4945
2022-12-02T12:31:29.388Z,5493
2022-12-02T12:32:35.481Z,5618
2022-12-02T12:33:41.584Z,5096
2022-12-02T12:34:47.594Z,4632
2022-12-02T12:35:53.705Z,4458
2022-12-02T12:36:59.825Z,4695
2022-12-02T12:38:05.954Z,4327
2022-12-02T12:39:12.014Z,4284
2022-12-02T12:40:18.126Z,4883
2022-12-02T12:41:24.196Z,5001
2022-12-02T12:42:30.176Z,4758
2022-12-02T12:43:36.230Z,4606
2022-12-02T12:44:42.314Z,4695
2022-12-02T12:45:48.603Z,4737
2022-12-02T12:46:54.588Z,4804
2022-12-02T12:48:00.716Z,4908
2022-12-02T12:49:06.802Z,4722
2022-12-02T12:50:12.911Z,4381
2022-12-02T12:51:18.965Z,4573
2022-12-02T12:52:25.102Z,4334
2022-12-02T12:53:31.039Z,4251
2022-12-02T12:54:37.244Z,4285
2022-12-02T12:55:43.284Z,4401
2022-12-02T12:56:49.380Z,4681
2022-12-02T12:57:55.454Z,4238
2022-12-02T12:59:01.603Z,4492
2022-12-02T13:00:07.723Z,4457
2022-12-02T13:01:13.691Z,3855
2022-12-02T13:02:19.800Z,3883
2022-12-02T13:03:25.938Z,3706
2022-12-02T13:04:31.976Z,3493
2022-12-02T13:05:38.104Z,3579
2022-12-02T13:06:44.151Z,3404
2022-12-02T13:07:50.245Z,2981
2022-12-02T13:08:56.330Z,2787
2022-12-02T13:10:02.414Z,2932
2022-12-02T13:11:08.523Z,2822
2022-12-02T13:12:14.625Z,2699
2022-12-02T13:13:20.740Z,2775
2022-12-02T13:14:26.802Z,2724
2022-12-02T13:15:32.966Z,2482
2022-12-02T13:16:39.140Z,2365
2022-12-02T13:17:45.097Z,2030
2022-12-02T13:18:51.329Z,2244
2022-12-02T13:19:57.301Z,2350
2022-12-02T13:21:03.423Z,2271
2022-12-02T13:22:09.495Z,2199
2022-12-02T13:23:15.617Z,2067
2022-12-02T13:24:21.692Z,2057
2022-12-02T13:25:27.847Z,1862
2022-12-02T13:26:33.902Z,1826
2022-12-02T13:27:40.050Z,1679
2022-12-02T13:28:46.102Z,1672
2022-12-02T13:29:52.233Z,1518
2022-12-02T13:30:58.291Z,1458
2022-12-02T13:32:04.404Z,1731
2022-12-02T13:33:10.526Z,2681
2022-12-02T13:34:16.659Z,2569
2022-12-02T13:35:22.724Z,1636
2022-12-02T13:36:28.803Z,1451
2022-12-02T13:37:34.904Z,2915
2022-12-02T13:38:41.060Z,4100
2022-12-02T13:39:47.097Z,3995
2022-12-02T13:40:53.250Z,3279
2022-12-02T13:41:59.329Z,3041
2022-12-02T13:43:05.402Z,2663
2022-12-02T13:44:11.496Z,2253
2022-12-02T13:45:17.600Z,1918
2022-12-02T13:46:23.765Z,1672
2022-12-02T13:47:29.799Z,1516
2022-12-02T13:48:35.933Z,1348
2022-12-02T13:49:42.127Z,1230
2022-12-02T13:50:48.114Z,1191
2022-12-02T13:51:54.225Z,1174
2022-12-02T13:53:00.397Z,1146
2022-12-02T13:54:06.440Z,1066
2022-12-02T13:55:12.596Z,1105
2022-12-02T13:56:18.696Z,1070
2022-12-02T13:57:24.841Z,1147
2022-12-02T13:58:30.858Z,1237
2022-12-02T13:59:36.968Z,1296
2022-12-02T14:00:43.085Z,1257
2022-12-02T14:01:49.170Z,1271
2022-12-02T14:02:55.287Z,1248
2022-12-02T14:04:01.370Z,1216
2022-12-02T14:05:07.478Z,1206
2022-12-02T14:06:13.589Z,1181
2022-12-02T14:07:19.790Z,1160
2022-12-02T14:08:25.789Z,1265
2022-12-02T14:09:31.897Z,1244
2022-12-02T14:10:37.990Z,1237
2022-12-02T14:11:44.102Z,1193
2022-12-02T14:12:50.235Z,1184
2022-12-02T14:13:56.301Z,1093
2022-12-02T14:15:02.411Z,1039
2022-12-02T14:16:08.526Z,1090
2022-12-02T14:17:14.611Z,1110
2022-12-02T14:18:20.738Z,968
2022-12-02T14:19:26.850Z,950
2022-12-02T14:20:32.933Z,996
2022-12-02T14:21:39.035Z,893
2022-12-02T14:22:45.148Z,796
2022-12-02T14:23:51.239Z,761
2022-12-02T14:24:57.369Z,737
2022-12-02T14:26:03.439Z,685
2022-12-02T14:27:09.532Z,675
2022-12-02T14:28:15.632Z,659
2022-12-02T14:29:21.740Z,627
2022-12-02T14:30:27.845Z,578
2022-12-02T14:31:33.944Z,560
2022-12-02T14:32:40.110Z,561
2022-12-02T14:33:46.149Z,505
2022-12-02T14:34:52.249Z,499
2022-12-02T14:35:58.358Z,501
2022-12-02T14:37:04.460Z,453
2022-12-02T14:38:10.556Z,413
2022-12-02T14:39:16.670Z,416
2022-12-02T14:40:22.812Z,406
2022-12-02T14:41:28.888Z,379
2022-12-02T14:42:34.993Z,373
2022-12-02T14:43:41.114Z,351
2022-12-02T14:44:47.216Z,340
2022-12-02T14:45:53.338Z,310
2022-12-02T14:46:59.430Z,296
2022-12-02T14:48:05.537Z,282
2022-12-02T14:49:11.661Z,282
2022-12-02T14:50:17.760Z,280
2022-12-02T14:51:23.880Z,267
2022-12-02T14:52:29.988Z,248
2022-12-02T14:53:36.092Z,217
2022-12-02T14:54:42.199Z,187
2022-12-02T14:55:48.307Z,170
2022-12-02T14:56:54.429Z,157
2022-12-02T14:58:00.531Z,165
2022-12-02T14:59:06.635Z,170
2022-12-02T15:00:12.759Z,167
2022-12-02T15:01:18.886Z,152
2022-12-02T15:02:24.980Z,142
2022-12-02T15:03:31.123Z,124
2022-12-02T15:04:37.205Z,114
2022-12-02T15:05:43.326Z,118
2022-12-02T15:06:49.522Z,114
2022-12-02T15:07:55.522Z,96
2022-12-02T15:09:01.633Z,86
2022-12-02T15:10:07.748Z,64
2022-12-02T15:11:13.836Z,47
2022-12-02T15:12:20.016Z,47
2022-12-02T15:13:26.049Z,47
2022-12-02T15:14:32.149Z,62
2022-12-02T15:15:38.298Z,60
2022-12-02T15:16:44.415Z,47
2022-12-02T15:17:50.473Z,41
2022-12-02T15:18:56.591Z,36
2022-12-02T15:20:02.819Z,27
2022-12-02T15:21:08.826Z,35
2022-12-02T15:22:14.991Z,18
2022-12-02T15:23:21.060Z,18
2022-12-02T15:24:27.193Z,13
2022-12-02T15:25:33.247Z,13
2022-12-02T15:26:39.508Z,9
2022-12-02T15:27:45.547Z,9
2022-12-02T15:28:51.573Z,9
2022-12-02T15:29:57.694Z,4
2022-12-02T15:31:03.800Z,9
2022-12-02T15:32:09.991Z,4
2022-12-02T15:33:16.020Z,4
2022-12-02T15:34:22.175Z,0
2022-12-02T15:35:28.337Z,0
2022-12-02T15:36:34.458Z,3
2022-12-02T15:37:40.567Z,0
2022-12-02T15:38:46.709Z,0
2022-12-02T15:39:52.713Z,0
2022-12-02T15:40:58.916Z,0
2022-12-02T15:42:05.013Z,0
2022-12-02T15:43:11.087Z,0
2022-12-02T15:44:17.243Z,0
2022-12-02T15:45:23.479Z,0
2022-12-02T15:46:29.439Z,0
2022-12-02T15:47:35.629Z,0
2022-12-02T15:48:41.655Z,0
2022-12-02T15:49:47.775Z,0
2022-12-02T15:50:53.922Z,0
2022-12-02T15:52:00.012Z,0
2022-12-02T15:53:06.105Z,0
2022-12-02T15:54:12.267Z,0
2022-12-02T15:55:18.457Z,0
2022-12-02T15:56:24.451Z,0
2022-12-02T15:57:30.705Z,0
2022-12-02T15:58:36.675Z,0
2022-12-02T15:59:42.907Z,0
2022-12-02T16:00:49.006Z,0
2022-12-02T16:01:55.081Z,0
2022-12-02T16:03:01.153Z,0
2022-12-02T16:04:07.343Z,0
2022-12-02T16:05:13.347Z,0
2022-12-02T16:06:19.459Z,0
2022-12-02T16:07:25.647Z,0
2022-12-02T16:08:31.841Z,0
2022-12-02T16:09:37.794Z,0
2022-12-02T16:10:43.921Z,0
2022-12-02T16:11:50.125Z,0
2022-12-02T16:12:56.249Z,0
2022-12-02T16:14:02.257Z,0
2022-12-02T16:15:08.389Z,0
2022-12-02T16:16:14.487Z,0
2022-12-02T16:17:20.665Z,0
2022-12-02T16:18:26.706Z,0
2022-12-02T16:19:32.821Z,0
2022-12-02T16:20:39.059Z,0
2022-12-02T16:21:45.026Z,0
2022-12-02T16:22:51.212Z,0
2022-12-02T16:23:57.237Z,0
2022-12-02T16:25:03.419Z,0
2022-12-02T16:26:09.467Z,0
2022-12-02T16:27:15.590Z,0
2022-12-02T16:28:21.761Z,0
2022-12-02T16:29:27.820Z,0
2022-12-02T16:30:33.951Z,0
2022-12-02T16:31:40.087Z,0
2022-12-02T16:32:46.147Z,0
2022-12-02T16:33:52.269Z,0
2022-12-02T16:34:58.490Z,0
2022-12-02T16:36:04.560Z,0
2022-12-02T16:37:10.696Z,0
2022-12-02T16:38:16.794Z,0
2022-12-02T16:39:22.939Z,0
2022-12-02T16:40:29.045Z,0
2022-12-02T16:41:35.106Z,0
2022-12-02T16:42:41.341Z,0
2022-12-02T16:43:47.468Z,0
